Avila, Spain

4:23 AM CEST on October 02, 2014 (GMT +0200)
Avila -La Colilla- | Change Station
CLOSE
Current Station
Personal Weather Station
Location: La Colilla, ÁVILA, CASTILLA Y LEÓN
Elevation: 3789 ft
Nearby Weather Stations

Elev 3789 ft 40.64 °N, 4.77 °W | Updated 6 seconds ago

Clear
Clear
59.2 °F
Feels Like 59.2 °F
N
2.0
Wind Variable Wind from South
Gusts 5.0 mph

Today
High -- | Low -- °F
--% Chance of Precip.
Yesterday
High -- | Low -- °F
Precip. -- in
8:16 AM 7:59 PM
First Quarter, 53% visible
Pressure 30.27 in
Visibility -9999.0 miles
Clouds
Dew Point 56 °F
Humidity 90%
Rainfall 0.00 in
Snow Depth Not available.
UV Not available.
Pollen Not available.
Air Quality Not available.
Flu Activity Not available.
METAR LESA 020200Z VRB02KT CAVOK 12/10 Q1025

More Conditions Fewer Conditions

Pressure 30.27 in
Visibility -9999.0 miles
Clouds
Dew Point 56 °F
Humidity 90%
Rainfall 0.00 in
Snow Depth Not available.
UV Not available.
Pollen Not available.
Air Quality Not available.
Flu Activity Not available.
METAR LESA 020200Z VRB02KT CAVOK 12/10 Q1025

More Conditions Fewer Conditions

10-Day Weather Forecast

Almanac

Astronomy

Oct. 02, 2014 Rise Set
Actual Time 8:16 AM CEST 7:59 PM CEST
Civil Twilight 7:48 AM CEST 8:26 PM CEST
Nautical Twilight 7:17 AM CEST 8:58 PM CEST
Astronomical Twilight 6:45 AM CEST 9:30 PM CEST
Moon 3:55 PM CEST 1:16 AM CEST
Length of Visible Light 12h 38m
Length of Day
11h 43m
Tomorrow will be 2m 40s shorter.
First Quarter, 53% of the Moon is Illuminated
Oct 1
First Quarter
Oct 8
Full
Oct 15
Last Quarter
Oct 23
New
Oct 30
First Quarter

Yesterday's Extremes

Country Highs Country Lows

Community

WunderPhotos

Upload Photos

1,758,142 photos uploaded!

WunderBlogs® & News

Nearby

Snow Depth

Not available.

Earthquake Activity

City Distance Mag. Time & Date
No recent earthquake activity has been reported nearby.
Minimum magnitude displayed is 2.5.

Coastal Water Temperatures

Place Temperature
No Stations Reporting

Nearby Weather Stations